Time;durP1;ratioP1;P1;durP2;ratioP2;P2;SDS_P1;SDS_P2;PMS_P1;PMS_P2;Temp;Humidity;BMP_temperature;BMP_pressure;BME280_temperature;BME280_humidity;BME280_pressure;Samples;Min_cycle;Max_cycle;Signal;HPM_P1;HPM_P2
2022/05/05 00:01:53;;;;;;;14.95;4.35;;;;;;;10.55;61.28;99584.88;5013215;28;20273;-53
2022/05/05 00:04:21;;;;;;;10.68;4.35;;;;;;;10.54;64.19;99585.94;5019251;28;20546;-51
2022/05/05 00:06:50;;;;;;;12.05;4.47;;;;;;;10.48;63.79;99584.22;5013638;28;20429;-51
2022/05/05 00:09:15;;;;;;;9.95;4.50;;;;;;;10.43;62.90;99578.72;5006382;28;20029;-53
2022/05/05 00:14:28;;;;;;;8.63;4.40;;;;;;;10.63;64.18;99577.53;5015851;28;20393;-52
2022/05/05 00:17:00;;;;;;;13.63;4.95;;;;;;;10.61;62.43;99575.13;5009681;28;20494;-54
2022/05/05 00:19:27;;;;;;;10.38;4.30;;;;;;;10.54;64.61;99572.56;5015862;28;20029;-53
2022/05/05 00:21:53;;;;;;;13.15;4.72;;;;;;;10.38;64.23;99575.09;4992002;28;20484;-53
2022/05/05 00:24:19;;;;;;;13.68;4.50;;;;;;;10.49;62.67;99577.00;5007728;28;20040;-51
2022/05/05 00:26:44;;;;;;;11.93;5.18;;;;;;;10.35;62.74;99584.44;5015139;28;20038;-51
2022/05/05 00:29:10;;;;;;;13.25;4.82;;;;;;;10.52;62.00;99580.00;5012960;28;20060;-52
2022/05/05 00:31:38;;;;;;;13.02;4.60;;;;;;;10.54;61.70;99590.50;5012889;28;20100;-52
2022/05/05 00:34:04;;;;;;;13.88;4.78;;;;;;;10.50;62.62;99589.31;5008805;28;20763;-51
2022/05/05 00:36:30;;;;;;;11.57;4.88;;;;;;;10.51;63.16;99582.94;5007331;28;20038;-50
2022/05/05 00:38:55;;;;;;;11.95;4.65;;;;;;;10.47;62.97;99584.44;5011787;28;20380;-53
2022/05/05 00:41:21;;;;;;;9.10;4.43;;;;;;;10.36;63.47;99588.75;5020779;28;20303;-51
2022/05/05 00:43:46;;;;;;;11.10;4.55;;;;;;;10.32;63.85;99583.03;5008016;28;20046;-52
2022/05/05 00:46:12;;;;;;;8.82;4.60;;;;;;;10.33;64.50;99589.19;4995224;28;20033;-49
2022/05/05 00:48:37;;;;;;;15.98;5.00;;;;;;;10.27;64.51;99590.09;5017693;28;20061;-52
2022/05/05 00:51:03;;;;;;;13.63;4.55;;;;;;;10.34;64.19;99590.84;4982230;28;20503;-51
2022/05/05 00:53:28;;;;;;;12.63;5.07;;;;;;;10.34;65.72;99588.16;5011726;28;20480;-52
2022/05/05 00:55:56;;;;;;;14.77;5.15;;;;;;;10.30;67.50;99589.66;4999416;28;20171;-50
2022/05/05 00:58:25;;;;;;;7.75;4.47;;;;;;;10.21;69.60;99591.00;5015291;28;20076;-54
2022/05/05 01:00:50;;;;;;;10.02;5.28;;;;;;;10.14;68.05;99594.63;4984578;28;20042;-53
2022/05/05 01:03:16;;;;;;;12.43;5.00;;;;;;;10.09;65.20;99589.16;5005368;28;20036;-50
2022/05/05 01:05:43;;;;;;;12.05;4.90;;;;;;;10.18;64.64;99591.47;4994033;28;20057;-52
2022/05/05 01:08:09;;;;;;;15.35;4.78;;;;;;;10.33;63.96;99595.38;5014533;28;20021;-52
2022/05/05 01:10:35;;;;;;;9.80;4.68;;;;;;;10.34;65.68;99590.84;4989219;28;20047;-50
2022/05/05 01:13:03;;;;;;;12.30;5.43;;;;;;;10.50;63.66;99590.13;4994564;28;20038;-50
2022/05/05 01:15:29;;;;;;;14.02;5.15;;;;;;;10.55;64.85;99589.44;4989086;28;20483;-49
2022/05/05 01:17:55;;;;;;;9.15;4.53;;;;;;;10.55;64.96;99590.25;5003152;28;20037;-53
2022/05/05 01:20:24;;;;;;;11.48;5.28;;;;;;;10.46;64.08;99583.63;4988753;28;20068;-50
2022/05/05 01:22:49;;;;;;;11.57;4.50;;;;;;;10.44;63.09;99595.63;5010362;28;20105;-51
2022/05/05 01:28:11;;;;;;;14.77;5.22;;;;;;;10.47;62.73;99590.59;5014696;28;20400;-53
2022/05/05 01:30:38;;;;;;;10.65;4.63;;;;;;;10.41;64.13;99586.19;5009568;28;20041;-50
2022/05/05 01:33:17;;;;;;;21.13;5.65;;;;;;;10.41;64.07;99591.56;5013005;28;20176;-51
2022/05/05 01:35:43;;;;;;;10.45;4.30;;;;;;;10.39;66.54;99590.97;5005455;28;20674;-52
2022/05/05 01:38:10;;;;;;;13.68;4.65;;;;;;;10.34;66.56;99590.84;4979051;28;20451;-52
2022/05/05 01:40:36;;;;;;;10.27;4.75;;;;;;;10.32;66.26;99591.06;4995478;28;20076;-50
2022/05/05 01:43:03;;;;;;;10.52;4.78;;;;;;;10.30;67.34;99595.84;5012535;28;20160;-54
2022/05/05 01:45:32;;;;;;;16.85;5.55;;;;;;;10.29;65.46;99596.09;5017044;28;20088;-52
2022/05/05 01:47:57;;;;;;;12.18;4.88;;;;;;;10.25;65.67;99601.03;4995659;28;20476;-54
2022/05/05 01:50:24;;;;;;;18.15;5.72;;;;;;;10.21;66.44;99596.38;4990556;28;20083;-53
2022/05/05 01:52:50;;;;;;;13.13;5.25;;;;;;;10.23;65.53;99605.00;5009223;28;20021;-51
2022/05/05 01:55:15;;;;;;;11.77;5.20;;;;;;;10.23;64.70;99596.97;5008534;28;20030;-50
2022/05/05 01:57:41;;;;;;;13.45;5.60;;;;;;;10.22;63.05;99603.38;5019449;28;20041;-53
2022/05/05 02:00:07;;;;;;;18.98;6.18;;;;;;;10.21;62.69;99607.09;5008758;28;20033;-52
2022/05/05 02:02:33;;;;;;;14.10;5.40;;;;;;;10.21;62.58;99604.41;4988838;28;20479;-51
2022/05/05 02:04:58;;;;;;;13.88;5.10;;;;;;;10.20;62.40;99606.28;5009499;28;20052;-53
2022/05/05 02:07:25;;;;;;;14.57;5.68;;;;;;;10.19;62.42;99606.53;5009734;28;20029;-52
2022/05/05 02:09:51;;;;;;;13.55;5.57;;;;;;;10.17;62.39;99612.09;5011018;28;20034;-52
2022/05/05 02:12:17;;;;;;;17.08;5.90;;;;;;;10.17;62.10;99613.97;4997794;28;20040;-51
2022/05/05 02:14:42;;;;;;;11.82;5.30;;;;;;;10.17;62.59;99617.47;5000520;28;20030;-51
2022/05/05 02:17:10;;;;;;;19.38;6.53;;;;;;;10.15;62.74;99614.19;5003246;28;20061;-52
2022/05/05 02:19:35;;;;;;;15.93;5.93;;;;;;;10.12;63.06;99622.69;5011966;28;20383;-53
2022/05/05 02:22:02;;;;;;;14.27;6.05;;;;;;;10.09;63.14;99615.13;5015608;28;20026;-53
2022/05/05 02:24:30;;;;;;;14.13;5.60;;;;;;;10.03;63.63;99616.81;5018473;28;20118;-53
2022/05/05 02:26:56;;;;;;;21.20;6.07;;;;;;;10.01;63.68;99624.31;5007647;28;20109;-52
2022/05/05 02:29:21;;;;;;;15.73;5.75;;;;;;;9.98;63.83;99618.56;5005303;28;20014;-54
2022/05/05 02:31:47;;;;;;;16.80;6.47;;;;;;;9.92;64.24;99622.97;5009403;28;20065;-53
2022/05/05 02:34:14;;;;;;;14.63;6.22;;;;;;;9.88;64.74;99628.00;4998936;28;20058;-51
2022/05/05 02:39:26;;;;;;;19.77;6.72;;;;;;;9.85;64.56;99619.59;5008262;28;20045;-52
2022/05/05 02:41:52;;;;;;;14.52;6.65;;;;;;;9.85;64.80;99625.75;5011267;28;20033;-51
2022/05/05 02:44:18;;;;;;;15.43;6.55;;;;;;;9.84;64.88;99620.63;5005500;28;20057;-53
2022/05/05 02:46:43;;;;;;;17.98;6.57;;;;;;;9.80;65.19;99624.81;5004372;28;20096;-53
2022/05/05 02:49:10;;;;;;;18.33;6.63;;;;;;;9.71;65.70;99625.13;5005388;28;20104;-52
2022/05/05 02:51:35;;;;;;;14.27;6.57;;;;;;;9.79;68.03;99620.50;5015883;28;20037;-51
2022/05/05 02:56:45;;;;;;;14.20;6.15;;;;;;;9.48;69.67;99625.00;5012352;28;20036;-51
2022/05/05 02:59:11;;;;;;;20.45;6.90;;;;;;;9.39;70.15;99616.50;5012883;28;20397;-50
2022/05/05 03:01:37;;;;;;;19.52;7.18;;;;;;;9.41;68.57;99624.28;5014368;28;20026;-50
2022/05/05 03:04:02;;;;;;;19.08;7.03;;;;;;;9.38;68.81;99627.41;5007483;28;20387;-52
2022/05/05 03:06:28;;;;;;;16.00;6.30;;;;;;;9.26;69.55;99621.97;5005353;28;20021;-50
2022/05/05 03:08:54;;;;;;;15.43;6.65;;;;;;;9.17;70.47;99624.16;5014442;28;20554;-51
2022/05/05 03:11:19;;;;;;;17.77;7.00;;;;;;;9.32;70.76;99621.09;5011807;28;20437;-50
2022/05/05 03:13:45;;;;;;;15.05;6.35;;;;;;;9.47;68.32;99624.19;4975998;28;20118;-53
2022/05/05 03:16:10;;;;;;;17.85;6.30;;;;;;;9.57;69.36;99625.53;4994118;28;20426;-52
2022/05/05 03:18:40;;;;;;;20.88;6.80;;;;;;;9.60;69.00;99617.84;5008551;28;20038;-52
2022/05/05 03:21:06;;;;;;;17.02;7.50;;;;;;;9.57;68.53;99623.66;5009399;28;20468;-50
2022/05/05 03:23:32;;;;;;;19.35;7.03;;;;;;;9.49;69.55;99627.47;5016284;28;20086;-53
2022/05/05 03:25:58;;;;;;;22.42;7.32;;;;;;;9.28;70.28;99627.94;5008532;28;20017;-53
2022/05/05 03:28:23;;;;;;;18.58;7.38;;;;;;;9.10;70.46;99639.47;5009359;28;20030;-52
2022/05/05 03:30:49;;;;;;;17.38;8.25;;;;;;;9.15;70.89;99636.13;4991274;28;20364;-53
2022/05/05 03:33:15;;;;;;;16.42;6.68;;;;;;;8.96;72.47;99643.31;5019243;28;20391;-51
2022/05/05 03:35:50;;;;;;;20.58;7.60;;;;;;;8.81;74.37;99635.63;5002579;28;20037;-52
2022/05/05 03:38:34;;;;;;;15.35;7.13;;;;;;;8.64;77.51;99635.41;4997599;28;20052;-50
2022/05/05 03:44:21;;;;;;;20.90;7.32;;;;;;;8.50;77.14;99641.91;4788203;28;20068;-50
2022/05/05 03:46:47;;;;;;;16.45;7.13;;;;;;;8.41;77.02;99639.50;5017362;28;20559;-52
2022/05/05 03:49:12;;;;;;;16.70;7.45;;;;;;;8.37;77.31;99646.28;5018588;28;20037;-50
2022/05/05 03:51:38;;;;;;;16.25;7.68;;;;;;;8.36;77.43;99647.34;5000970;28;20092;-52
2022/05/05 03:54:03;;;;;;;20.95;7.25;;;;;;;8.34;77.06;99646.72;5011574;28;20128;-50
2022/05/05 03:56:29;;;;;;;16.70;6.65;;;;;;;8.34;78.85;99652.06;5007763;28;20489;-50
2022/05/05 03:58:55;;;;;;;19.15;7.28;;;;;;;8.31;78.90;99649.00;5018523;28;20424;-52
2022/05/05 04:01:20;;;;;;;18.45;7.78;;;;;;;8.37;79.50;99654.28;5014182;28;20072;-50
2022/05/05 04:03:46;;;;;;;16.13;7.50;;;;;;;8.45;78.36;99655.09;4989400;28;20101;-53
2022/05/05 04:06:16;;;;;;;18.40;7.28;;;;;;;8.46;79.54;99654.84;5008256;28;20044;-52
2022/05/05 04:08:42;;;;;;;22.73;8.38;;;;;;;8.57;77.87;99664.84;4982833;28;20503;-53
2022/05/05 04:11:08;;;;;;;26.17;8.43;;;;;;;8.71;75.53;99662.91;5008673;28;20117;-54
2022/05/05 04:13:34;;;;;;;17.65;7.40;;;;;;;8.91;76.40;99661.88;5008065;28;20357;-53
2022/05/05 04:16:00;;;;;;;17.73;7.22;;;;;;;8.98;75.88;99659.94;5014741;28;20506;-51
2022/05/05 04:18:26;;;;;;;20.20;7.80;;;;;;;9.10;75.83;99676.91;5019007;28;20026;-52
2022/05/05 04:20:51;;;;;;;21.27;8.02;;;;;;;9.29;75.07;99669.72;5016648;28;20037;-51
2022/05/05 04:23:17;;;;;;;23.23;9.30;;;;;;;9.09;73.03;99675.28;5008851;28;20068;-53
2022/05/05 04:25:43;;;;;;;22.55;8.82;;;;;;;9.60;72.00;99675.91;5007177;28;20030;-53
2022/05/05 04:28:09;;;;;;;26.45;9.57;;;;;;;10.53;69.38;99669.25;4999467;28;20098;-51
2022/05/05 04:30:35;;;;;;;37.95;8.98;;;;;;;11.09;65.24;99678.59;4999643;28;20348;-53
2022/05/05 04:33:01;;;;;;;22.02;8.30;;;;;;;11.87;64.55;99685.31;5013731;28;20026;-53
2022/05/05 04:35:27;;;;;;;25.63;8.60;;;;;;;12.06;62.26;99682.47;5019281;28;20435;-51
2022/05/05 04:37:52;;;;;;;26.30;8.52;;;;;;;11.37;62.34;99680.53;5007636;28;20121;-54
2022/05/05 04:40:18;;;;;;;25.13;8.55;;;;;;;10.66;66.17;99684.31;4997396;28;20456;-51
2022/05/05 04:42:44;;;;;;;26.95;8.45;;;;;;;10.35;68.07;99683.56;5009730;28;20136;-51
2022/05/05 04:45:11;;;;;;;24.85;8.00;;;;;;;10.48;70.23;99691.41;5012916;28;20034;-51
2022/05/05 04:47:36;;;;;;;27.10;9.65;;;;;;;10.27;68.45;99691.91;5008951;28;20515;-54
2022/05/05 04:50:02;;;;;;;28.40;9.63;;;;;;;10.06;68.69;99691.38;4990057;28;20109;-51
2022/05/05 04:52:28;;;;;;;31.55;10.38;;;;;;;10.19;70.01;99694.91;5007818;28;20037;-53
2022/05/05 04:54:53;;;;;;;30.95;9.32;;;;;;;10.17;70.12;99702.34;5004237;28;20171;-51
2022/05/05 04:57:19;;;;;;;28.52;8.68;;;;;;;10.31;69.31;99701.97;5002441;28;20022;-53
2022/05/05 04:59:45;;;;;;;38.30;9.85;;;;;;;10.32;67.98;99706.28;5009030;28;20434;-53
2022/05/05 05:02:10;;;;;;;24.67;9.48;;;;;;;10.52;67.65;99705.97;5006547;28;20475;-52
2022/05/05 05:04:36;;;;;;;30.60;8.93;;;;;;;10.32;70.50;99705.47;5010903;28;20021;-54
2022/05/05 05:07:02;;;;;;;25.27;8.75;;;;;;;10.29;71.44;99716.63;5014998;28;20040;-53
2022/05/05 05:09:28;;;;;;;31.15;10.25;;;;;;;9.97;71.49;99708.81;5010573;28;20040;-52
2022/05/05 05:11:54;;;;;;;43.10;10.73;;;;;;;10.02;71.75;99721.50;5010823;28;20649;-52
2022/05/05 05:14:20;;;;;;;28.50;9.93;;;;;;;9.97;72.64;99719.50;5004510;28;20037;-50
2022/05/05 05:16:45;;;;;;;34.13;10.85;;;;;;;9.86;72.84;99717.59;5012458;28;20037;-54
2022/05/05 05:19:11;;;;;;;47.25;10.02;;;;;;;9.77;73.82;99727.81;5007519;28;20576;-52
2022/05/05 05:21:37;;;;;;;30.05;9.55;;;;;;;9.96;73.68;99728.59;5011299;28;20468;-51
2022/05/05 05:24:02;;;;;;;35.00;10.40;;;;;;;9.90;74.44;99726.81;5011504;28;20026;-51
2022/05/05 05:26:28;;;;;;;34.38;11.30;;;;;;;9.90;73.88;99732.16;5010320;28;20464;-52
2022/05/05 05:28:54;;;;;;;48.22;11.10;;;;;;;9.93;74.96;99729.88;4996084;28;20472;-52
2022/05/05 05:31:21;;;;;;;20.38;9.23;;;;;;;10.15;75.26;99727.50;5002690;28;20119;-51
2022/05/05 05:33:47;;;;;;;29.63;11.65;;;;;;;10.25;72.55;99731.50;4986439;28;20496;-52
2022/05/05 05:36:13;;;;;;;17.80;8.43;;;;;;;10.15;75.29;99738.22;5003456;28;20502;-52
2022/05/05 05:38:39;;;;;;;25.23;8.57;;;;;;;10.07;75.70;99740.41;4975472;28;20030;-50
2022/05/05 05:41:04;;;;;;;23.83;8.90;;;;;;;9.98;76.36;99742.56;4991257;28;20509;-49
2022/05/05 05:43:30;;;;;;;22.88;8.70;;;;;;;10.04;76.24;99744.34;5008805;28;20049;-50
2022/05/05 05:45:55;;;;;;;24.40;9.15;;;;;;;9.99;76.14;99749.56;5011951;28;20592;-50
2022/05/05 05:48:21;;;;;;;24.30;9.35;;;;;;;10.03;75.93;99744.56;5019343;28;20060;-51
2022/05/05 05:50:46;;;;;;;35.67;9.63;;;;;;;10.14;75.56;99755.34;5000743;28;20376;-52
2022/05/05 05:53:12;;;;;;;30.70;10.25;;;;;;;10.25;74.37;99752.94;5007884;28;20063;-52
2022/05/05 05:55:38;;;;;;;37.80;10.88;;;;;;;10.33;73.89;99749.94;4991994;28;20168;-52
2022/05/05 05:58:03;;;;;;;40.28;10.70;;;;;;;10.56;74.13;99752.72;5003292;28;20046;-50
2022/05/05 06:00:30;;;;;;;32.65;10.05;;;;;;;10.63;74.79;99759.81;4987027;28;20021;-54
2022/05/05 06:05:42;;;;;;;24.63;10.10;;;;;;;10.69;72.67;99761.59;4987326;28;20511;-52
2022/05/05 06:08:07;;;;;;;38.38;10.25;;;;;;;10.83;72.49;99762.19;5003692;28;20036;-54
2022/05/05 06:10:33;;;;;;;31.45;10.75;;;;;;;11.00;71.69;99758.59;5013242;28;20030;-54
2022/05/05 06:12:59;;;;;;;31.65;10.60;;;;;;;11.08;71.80;99767.34;5008385;28;20028;-53
2022/05/05 06:15:24;;;;;;;34.85;10.60;;;;;;;11.24;71.51;99764.00;4991576;28;20030;-52
2022/05/05 06:17:50;;;;;;;35.67;11.20;;;;;;;11.34;69.97;99766.09;4978916;28;20048;-49
2022/05/05 06:20:16;;;;;;;32.60;10.55;;;;;;;11.36;70.54;99764.81;5003099;28;20342;-52
2022/05/05 06:22:41;;;;;;;44.50;11.57;;;;;;;11.33;70.03;99765.28;5008998;28;20041;-52
2022/05/05 06:25:08;;;;;;;35.55;11.98;;;;;;;11.53;69.00;99764.06;5006582;28;20471;-51
2022/05/05 06:27:33;;;;;;;31.67;11.85;;;;;;;11.73;69.67;99775.28;5002087;28;20022;-51
2022/05/05 06:30:03;;;;;;;40.47;11.18;;;;;;;12.01;67.60;99774.53;5003055;28;20064;-53
2022/05/05 06:32:29;;;;;;;41.72;13.57;;;;;;;11.74;67.94;99768.84;5011684;28;20034;-52
2022/05/05 06:34:55;;;;;;;42.33;13.00;;;;;;;12.00;68.11;99769.38;5006504;28;20616;-51
2022/05/05 06:37:22;;;;;;;45.35;12.88;;;;;;;12.26;66.00;99779.56;4982681;28;20036;-50
2022/05/05 06:39:49;;;;;;;38.08;14.07;;;;;;;12.21;65.97;99775.97;5012506;28;20493;-52
2022/05/05 06:42:15;;;;;;;39.05;13.05;;;;;;;12.40;66.21;99784.66;4976143;28;20196;-53
2022/05/05 06:44:41;;;;;;;45.70;14.90;;;;;;;12.56;65.71;99793.81;5012540;28;20188;-51
2022/05/05 06:47:07;;;;;;;54.67;17.30;;;;;;;12.84;63.71;99787.59;5013371;28;20037;-50
2022/05/05 06:49:33;;;;;;;44.78;15.10;;;;;;;13.80;61.38;99787.41;5008773;28;20505;-51
2022/05/05 06:51:59;;;;;;;56.13;15.50;;;;;;;14.30;58.90;99791.75;5005244;28;20125;-49
2022/05/05 06:54:28;;;;;;;34.58;11.95;;;;;;;14.41;60.04;99793.50;5005842;28;20088;-52
2022/05/05 06:56:57;;;;;;;41.42;13.18;;;;;;;15.02;57.63;99798.69;5009047;28;20084;-50
2022/05/05 06:59:22;;;;;;;41.05;15.32;;;;;;;15.10;56.18;99794.69;5010373;28;20092;-51
2022/05/05 07:01:54;;;;;;;52.53;16.55;;;;;;;14.74;56.45;99791.69;5003489;28;20022;-52
2022/05/05 07:07:05;;;;;;;46.83;14.43;;;;;;;14.97;56.80;99800.53;5003694;28;20041;-54
2022/05/05 07:12:15;;;;;;;45.63;14.95;;;;;;;15.22;54.98;99789.13;5005508;28;20118;-50
2022/05/05 07:14:43;;;;;;;50.17;17.00;;;;;;;14.88;55.00;99801.00;5005372;28;20109;-53
2022/05/05 07:17:09;;;;;;;50.15;16.38;;;;;;;15.09;54.36;99801.16;5005845;28;20085;-53
2022/05/05 07:19:34;;;;;;;57.90;15.73;;;;;;;15.56;53.28;99797.72;5009234;28;20080;-50
2022/05/05 07:22:00;;;;;;;43.47;15.75;;;;;;;16.23;51.57;99795.34;4997059;28;20495;-52
2022/05/05 07:24:25;;;;;;;46.40;15.60;;;;;;;15.73;52.56;99809.19;5009313;28;20057;-52
2022/05/05 07:26:51;;;;;;;41.20;16.45;;;;;;;15.19;53.74;99793.16;5006582;28;20616;-53
2022/05/05 07:29:16;;;;;;;55.40;16.88;;;;;;;16.06;52.32;99804.47;5011679;28;20034;-50
2022/05/05 07:31:42;;;;;;;45.38;17.02;;;;;;;16.73;51.26;99804.66;5008244;28;20105;-52
2022/05/05 07:34:08;;;;;;;50.92;16.45;;;;;;;16.61;50.48;99810.31;5011597;28;20040;-50
2022/05/05 07:36:33;;;;;;;62.72;16.83;;;;;;;17.30;48.23;99811.72;5005491;28;20021;-52
2022/05/05 07:38:59;;;;;;;51.47;16.73;;;;;;;17.55;47.99;99815.50;4975078;28;20026;-52
2022/05/05 07:41:24;;;;;;;33.00;15.23;;;;;;;17.30;48.50;99811.72;5002710;28;20037;-52
2022/05/05 07:43:50;;;;;;;61.00;17.73;;;;;;;16.53;50.54;99817.06;5009484;28;20128;-53
2022/05/05 07:46:19;;;;;;;50.15;16.52;;;;;;;17.82;47.91;99816.00;5003518;28;20022;-51
2022/05/05 07:48:45;;;;;;;48.50;16.42;;;;;;;16.83;49.22;99812.00;4971184;28;20034;-52
2022/05/05 07:51:11;;;;;;;48.60;15.13;;;;;;;17.93;47.34;99813.25;5005640;28;20064;-53
2022/05/05 07:53:36;;;;;;;46.20;17.00;;;;;;;16.77;49.40;99811.97;5006253;28;20456;-53
2022/05/05 07:56:02;;;;;;;45.60;16.17;;;;;;;17.29;48.47;99817.41;4988129;28;20381;-50
2022/05/05 07:58:27;;;;;;;40.53;15.55;;;;;;;17.12;48.92;99823.09;5015444;28;20487;-51
2022/05/05 08:00:53;;;;;;;40.90;15.90;;;;;;;17.31;49.47;99826.88;5005522;28;20030;-51
2022/05/05 08:03:18;;;;;;;41.10;15.90;;;;;;;19.21;44.74;99836.94;5007883;28;20037;-52
2022/05/05 08:05:44;;;;;;;40.13;17.00;;;;;;;17.59;47.55;99838.22;5017501;28;20033;-50
2022/05/05 08:08:10;;;;;;;42.25;16.75;;;;;;;15.62;53.46;99826.38;5014024;28;20030;-53
2022/05/05 08:10:36;;;;;;;42.20;16.05;;;;;;;16.58;50.84;99835.22;5014226;28;20488;-52
2022/05/05 08:13:03;;;;;;;50.63;16.35;;;;;;;16.93;51.01;99831.78;5011061;28;20034;-52
2022/05/05 08:15:29;;;;;;;50.33;17.92;;;;;;;17.29;49.84;99834.47;5008630;28;20551;-52
2022/05/05 08:17:55;;;;;;;45.80;17.17;;;;;;;17.30;50.04;99836.13;5013393;28;20037;-52
2022/05/05 08:20:20;;;;;;;49.67;16.23;;;;;;;16.98;50.68;99834.47;5012705;28;20038;-51
2022/05/05 08:22:46;;;;;;;40.85;17.30;;;;;;;16.38;51.97;99838.66;4974424;28;20030;-52
2022/05/05 08:30:39;;;;;;;49.15;16.85;;;;;;;16.95;51.22;99845.84;4994591;28;20141;-50
2022/05/05 08:33:08;;;;;;;41.80;17.88;;;;;;;16.24;52.38;99848.34;5013133;28;20129;-53
2022/05/05 08:35:34;;;;;;;51.83;17.13;;;;;;;16.26;52.15;99854.31;5012547;28;20426;-53
2022/05/05 08:37:59;;;;;;;45.30;17.67;;;;;;;16.15;52.07;99854.28;5002615;28;20034;-52
2022/05/05 08:40:28;;;;;;;44.88;18.80;;;;;;;15.86;52.98;99850.34;5000705;28;20087;-50
2022/05/05 08:42:53;;;;;;;52.67;18.90;;;;;;;16.28;51.60;99850.25;4999876;28;20037;-52
2022/05/05 08:45:20;;;;;;;51.40;17.50;;;;;;;16.21;52.88;99857.00;5010840;28;20034;-51
2022/05/05 08:47:47;;;;;;;37.88;17.35;;;;;;;16.71;51.45;99850.13;5000375;28;20464;-50
2022/05/05 08:50:12;;;;;;;48.80;18.05;;;;;;;15.97;53.24;99857.41;5001860;28;20165;-53
2022/05/05 08:52:48;;;;;;;46.20;16.90;;;;;;;16.40;53.27;99863.56;5013517;28;20418;-51
2022/05/05 08:55:18;;;;;;;37.15;15.85;;;;;;;16.49;52.34;99863.84;4991128;28;20034;-53
2022/05/05 08:57:44;;;;;;;39.05;17.08;;;;;;;16.07;52.50;99851.25;5006256;28;20717;-52
2022/05/05 09:00:10;;;;;;;47.13;18.10;;;;;;;16.31;52.33;99855.13;5012095;28;20037;-51
2022/05/05 09:02:36;;;;;;;44.85;17.13;;;;;;;16.99;51.83;99857.75;5005613;28;20044;-52
2022/05/05 09:05:03;;;;;;;36.22;16.48;;;;;;;16.90;51.89;99856.69;5000824;28;20140;-52
2022/05/05 09:07:51;;;;;;;41.92;16.75;;;;;;;15.99;52.54;99854.47;5007923;28;20495;-49
2022/05/05 09:10:17;;;;;;;39.38;16.38;;;;;;;16.29;53.11;99859.19;5012887;28;20026;-52
2022/05/05 09:12:58;;;;;;;36.88;17.05;;;;;;;16.08;52.56;99853.69;5008625;28;20030;-52
2022/05/05 09:15:33;;;;;;;38.10;16.60;;;;;;;16.26;52.88;99855.13;4996141;28;20034;-50
2022/05/05 09:18:25;;;;;;;42.63;17.33;;;;;;;15.05;56.50;99856.75;5014640;28;20037;-51
2022/05/05 09:20:51;;;;;;;43.47;17.40;;;;;;;15.53;54.43;99853.09;5010412;28;20048;-53
2022/05/05 09:23:36;;;;;;;35.38;16.27;;;;;;;16.74;52.10;99863.09;5016199;28;20017;-52
2022/05/05 09:26:03;;;;;;;35.65;16.58;;;;;;;17.13;51.25;99868.06;5008604;28;20030;-50
2022/05/05 09:28:35;;;;;;;34.25;16.20;;;;;;;16.65;52.21;99868.25;5000205;28;20060;-52
2022/05/05 09:31:08;;;;;;;39.13;16.83;;;;;;;15.90;53.66;99868.47;5015536;28;20616;-53
2022/05/05 09:33:33;;;;;;;36.70;16.63;;;;;;;16.80;52.11;99870.19;5009074;28;20030;-51
2022/05/05 09:36:02;;;;;;;35.20;16.42;;;;;;;16.54;52.96;99864.69;5002247;28;20026;-53
2022/05/05 09:38:47;;;;;;;35.20;16.45;;;;;;;16.00;53.79;99870.44;4994291;28;20468;-51
2022/05/05 09:41:13;;;;;;;37.63;17.02;;;;;;;16.49;52.86;99863.84;5003302;28;20041;-50
2022/05/05 09:43:38;;;;;;;40.80;16.63;;;;;;;15.86;53.84;99863.84;5005933;28;20169;-52
2022/05/05 09:46:36;;;;;;;41.63;17.75;;;;;;;16.86;51.21;99865.59;5010821;28;20141;-52
2022/05/05 09:49:12;;;;;;;44.20;17.38;;;;;;;16.56;51.88;99859.81;4966671;28;20547;-51
2022/05/05 09:51:42;;;;;;;37.90;16.77;;;;;;;16.56;52.07;99865.22;5005829;28;20576;-50
2022/05/05 09:59:53;;;;;;;35.17;16.00;;;;;;;16.76;51.55;99863.66;4996522;28;20471;-52
2022/05/05 10:05:10;;;;;;;35.10;16.25;;;;;;;18.04;47.64;99871.78;4997757;28;20583;-51
2022/05/05 10:07:38;;;;;;;28.42;15.15;;;;;;;17.66;48.62;99871.28;5006590;28;20136;-53
2022/05/05 10:10:05;;;;;;;28.73;14.70;;;;;;;18.94;45.15;99868.91;4993812;28;20072;-51
2022/05/05 10:12:30;;;;;;;33.15;14.93;;;;;;;18.87;45.54;99875.75;4999122;28;20852;-51
2022/05/05 10:14:56;;;;;;;33.35;15.75;;;;;;;18.55;46.92;99877.00;4982312;28;20026;-51
2022/05/05 10:17:24;;;;;;;35.42;15.20;;;;;;;17.83;48.23;99879.16;5011954;28;20109;-52
2022/05/05 10:19:51;;;;;;;37.05;15.57;;;;;;;17.74;48.28;99873.44;4996897;28;20454;-53
2022/05/05 10:22:19;;;;;;;36.08;15.77;;;;;;;17.58;48.36;99874.56;5004841;28;20037;-53
2022/05/05 10:24:57;;;;;;;31.23;15.48;;;;;;;18.05;47.67;99868.00;4963482;28;20038;-51
2022/05/05 10:27:23;;;;;;;33.38;14.00;;;;;;;17.45;48.11;99870.50;5000251;28;20117;-53
2022/05/05 10:29:48;;;;;;;30.45;14.48;;;;;;;17.12;49.16;99861.81;4992664;28;20136;-52
2022/05/05 10:32:21;;;;;;;40.50;15.60;;;;;;;17.00;49.34;99864.81;5010953;28;20067;-53
2022/05/05 10:34:54;;;;;;;33.10;15.07;;;;;;;18.16;46.83;99857.91;5018747;28;20429;-52
2022/05/05 10:37:22;;;;;;;31.90;14.45;;;;;;;17.75;47.58;99858.81;5008106;28;20028;-52
2022/05/05 10:40:07;;;;;;;28.45;13.75;;;;;;;18.86;46.08;99855.13;5008395;28;20056;-51
2022/05/05 10:42:40;;;;;;;25.25;12.55;;;;;;;17.85;47.14;99858.00;4998433;28;20084;-52
2022/05/05 10:45:13;;;;;;;26.15;11.68;;;;;;;17.91;46.69;99856.91;5010146;28;20073;-51
2022/05/05 10:48:24;;;;;;;25.00;12.68;;;;;;;17.50;47.11;99856.13;5011426;28;20088;-54
2022/05/05 10:50:50;;;;;;;23.92;11.82;;;;;;;17.47;47.46;99854.78;5010765;28;20375;-54
2022/05/05 10:53:34;;;;;;;30.13;12.80;;;;;;;17.45;47.88;99849.66;4991909;28;20038;-53
2022/05/05 10:56:01;;;;;;;26.38;12.27;;;;;;;18.39;46.26;99853.72;5006757;28;20392;-51
2022/05/05 10:58:58;;;;;;;23.17;12.55;;;;;;;17.01;48.58;99849.38;5016392;28;20029;-53
2022/05/05 11:01:26;;;;;;;29.30;12.18;;;;;;;16.93;49.50;99848.00;5011932;28;20033;-52
2022/05/05 11:04:24;;;;;;;23.27;13.05;;;;;;;17.21;48.77;99848.56;4978763;28;20494;-49
2022/05/05 11:07:23;;;;;;;21.38;12.00;;;;;;;17.59;46.64;99849.88;4981451;28;20085;-52
2022/05/05 11:09:49;;;;;;;24.67;11.37;;;;;;;17.45;48.15;99852.34;4997413;28;20034;-53
2022/05/05 11:12:19;;;;;;;29.45;11.30;;;;;;;17.77;47.27;99850.38;4996627;28;20037;-52
2022/05/05 11:23:29;;;;;;;18.85;10.15;;;;;;;19.06;44.19;99854.16;4999493;28;20498;-50
2022/05/05 11:25:54;;;;;;;23.60;9.98;;;;;;;19.42;43.99;99857.41;4984063;28;20450;-52
2022/05/05 11:28:20;;;;;;;20.63;10.27;;;;;;;18.87;44.13;99862.16;5017904;28;20021;-52
2022/05/05 11:30:46;;;;;;;22.70;10.00;;;;;;;18.93;44.19;99855.63;5011817;28;20132;-51
2022/05/05 11:33:13;;;;;;;24.15;10.82;;;;;;;17.33;46.37;99854.53;5004729;28;20501;-52
2022/05/05 11:35:38;;;;;;;20.80;10.52;;;;;;;17.89;45.62;99853.63;5008889;28;20447;-51
2022/05/05 11:38:08;;;;;;;23.77;9.95;;;;;;;17.91;45.75;99851.47;4984477;28;20486;-53
2022/05/05 11:40:37;;;;;;;27.23;10.52;;;;;;;17.58;46.19;99852.88;5008087;28;20075;-52
2022/05/05 11:45:54;;;;;;;21.70;10.48;;;;;;;17.55;48.06;99861.56;4970844;28;20468;-50
2022/05/05 11:48:20;;;;;;;23.80;10.65;;;;;;;17.62;47.40;99859.34;4969075;28;20098;-52
2022/05/05 11:50:45;;;;;;;18.73;10.10;;;;;;;18.40;47.51;99863.50;4968494;28;20650;-50
2022/05/05 11:53:16;;;;;;;29.67;10.55;;;;;;;17.80;48.71;99860.75;4967020;28;20069;-52
2022/05/05 11:55:44;;;;;;;20.42;9.75;;;;;;;18.14;48.39;99866.31;4968998;28;20114;-52
2022/05/05 12:01:36;;;;;;;21.70;10.45;;;;;;;17.94;48.16;99863.66;4971212;28;20038;-50
2022/05/05 12:04:00;;;;;;;20.08;10.60;;;;;;;17.58;47.97;99855.59;4973989;28;20112;-53
2022/05/05 12:06:26;;;;;;;26.58;10.57;;;;;;;16.96;48.73;99857.50;4968798;28;20302;-53
2022/05/05 12:08:51;;;;;;;23.15;11.75;;;;;;;16.75;49.77;99848.50;4967085;28;20031;-54
2022/05/05 12:11:17;;;;;;;18.38;9.95;;;;;;;17.56;48.65;99849.63;4968343;28;20034;-53
2022/05/05 12:13:43;;;;;;;26.70;11.30;;;;;;;18.15;46.98;99857.09;4967208;28;20030;-55
2022/05/05 12:16:10;;;;;;;19.80;10.13;;;;;;;18.62;46.24;99853.06;4969908;28;20031;-51